createdAt,value
2022-09-28T00:00:51.678Z,99289.00
2022-09-28T00:03:18.092Z,99292.00
2022-09-28T00:05:44.523Z,99290.00
2022-09-28T00:08:11.127Z,99292.00
2022-09-28T00:10:38.186Z,99298.00
2022-09-28T00:13:05.444Z,99298.00
2022-09-28T00:15:31.830Z,99300.00
2022-09-28T00:17:58.456Z,99299.00
2022-09-28T00:20:24.884Z,99305.00
2022-09-28T00:22:51.402Z,99294.00
2022-09-28T00:25:18.005Z,99289.00
2022-09-28T00:27:49.836Z,99297.00
2022-09-28T00:30:16.385Z,99289.00
2022-09-28T00:32:42.827Z,99289.00
2022-09-28T00:35:09.573Z,99289.00
2022-09-28T00:37:35.995Z,99277.00
2022-09-28T00:40:02.378Z,99280.00
2022-09-28T00:42:28.846Z,99280.00
2022-09-28T00:44:56.147Z,99278.00
2022-09-28T00:47:40.696Z,99282.00
2022-09-28T00:50:16.390Z,99277.00
2022-09-28T00:53:08.005Z,99280.00
2022-09-28T00:55:42.871Z,99286.00
2022-09-28T00:58:15.579Z,99279.00
2022-09-28T01:00:42.126Z,99278.00
2022-09-28T01:03:09.142Z,99279.00
2022-09-28T01:05:37.310Z,99289.00
2022-09-28T01:08:06.666Z,99289.00
2022-09-28T01:10:33.482Z,99278.00
2022-09-28T01:12:59.953Z,99282.00
2022-09-28T01:15:29.193Z,99281.00
2022-09-28T01:18:08.621Z,99277.00
2022-09-28T01:21:05.456Z,99280.00
2022-09-28T01:24:01.166Z,99277.00
2022-09-28T01:26:52.076Z,99274.00
2022-09-28T01:29:35.150Z,99273.00
2022-09-28T01:32:14.075Z,99269.00
2022-09-28T01:35:02.742Z,99271.00
2022-09-28T01:37:42.431Z,99280.00
2022-09-28T01:40:10.669Z,99271.00
2022-09-28T01:42:39.787Z,99270.00
2022-09-28T01:45:14.294Z,99277.00
2022-09-28T01:47:41.383Z,99265.00
2022-09-28T01:50:19.297Z,99271.00
2022-09-28T01:52:51.736Z,99269.00
2022-09-28T01:55:30.101Z,99264.00
2022-09-28T01:58:09.518Z,99261.00
2022-09-28T02:00:41.539Z,99260.00
2022-09-28T02:03:16.784Z,99246.00
2022-09-28T02:05:50.458Z,99252.00
2022-09-28T02:08:28.820Z,99253.00
2022-09-28T02:11:08.068Z,99256.00
2022-09-28T02:13:50.788Z,99250.00
2022-09-28T02:16:25.165Z,99256.00
2022-09-28T02:18:51.963Z,99257.00
2022-09-28T02:21:42.026Z,99253.00
2022-09-28T02:24:20.636Z,99250.00
2022-09-28T02:26:49.911Z,99259.00
2022-09-28T02:29:16.907Z,99255.00
2022-09-28T02:31:43.762Z,99252.00
2022-09-28T02:34:10.418Z,99243.00
2022-09-28T02:36:37.036Z,99247.00
2022-09-28T02:39:03.473Z,99238.00
2022-09-28T02:41:44.626Z,99241.00
2022-09-28T02:44:31.654Z,99242.00
2022-09-28T02:47:04.505Z,99237.00
2022-09-28T02:49:49.782Z,99242.00
2022-09-28T02:52:41.877Z,99233.00
2022-09-28T02:55:29.472Z,99239.00
2022-09-28T02:58:19.715Z,99235.00
2022-09-28T03:00:57.338Z,99234.00
2022-09-28T03:03:47.333Z,99235.00
2022-09-28T03:06:31.972Z,99227.00
2022-09-28T03:09:05.743Z,99227.00
2022-09-28T03:11:38.764Z,99227.00
2022-09-28T03:14:06.019Z,99223.00
2022-09-28T03:16:32.471Z,99224.00
2022-09-28T03:18:58.943Z,99217.00
2022-09-28T03:21:25.431Z,99216.00
2022-09-28T03:23:51.861Z,99216.00
2022-09-28T03:26:20.060Z,99214.00
2022-09-28T03:28:46.640Z,99217.00
2022-09-28T03:31:13.104Z,99215.00
2022-09-28T03:33:39.615Z,99210.00
2022-09-28T03:36:06.129Z,99206.00
2022-09-28T03:38:32.565Z,99201.00
2022-09-28T03:41:00.148Z,99211.00
2022-09-28T03:43:28.198Z,99213.00
2022-09-28T03:45:59.791Z,99202.00
2022-09-28T03:48:32.934Z,99198.00
2022-09-28T03:51:07.887Z,99197.00
2022-09-28T03:53:34.350Z,99208.00
2022-09-28T03:56:09.065Z,99204.00
2022-09-28T03:58:35.479Z,99206.00
2022-09-28T04:01:04.425Z,99197.00
2022-09-28T04:03:31.276Z,99183.00
2022-09-28T04:05:58.462Z,99181.00
2022-09-28T04:08:25.335Z,99189.00
2022-09-28T04:10:52.032Z,99181.00
2022-09-28T04:13:18.550Z,99183.00
2022-09-28T04:15:52.769Z,99187.00
2022-09-28T04:18:19.220Z,99181.00
2022-09-28T04:20:47.950Z,99180.00
2022-09-28T04:23:15.899Z,99183.00
2022-09-28T04:25:42.482Z,99180.00
2022-09-28T04:28:28.041Z,99176.00
2022-09-28T04:30:54.499Z,99179.00
2022-09-28T04:33:20.904Z,99177.00
2022-09-28T04:35:47.331Z,99180.00
2022-09-28T04:38:13.910Z,99179.00
2022-09-28T04:40:40.519Z,99179.00
2022-09-28T04:43:07.636Z,99184.00
2022-09-28T04:45:34.137Z,99187.00
2022-09-28T04:48:00.609Z,99172.00
2022-09-28T04:50:27.238Z,99184.00
2022-09-28T04:52:53.641Z,99190.00
2022-09-28T04:55:20.922Z,99185.00
2022-09-28T04:57:47.383Z,99171.00
2022-09-28T05:00:14.596Z,99180.00
2022-09-28T05:02:41.099Z,99185.00
2022-09-28T05:05:08.082Z,99187.00
2022-09-28T05:07:34.691Z,99182.00
2022-09-28T05:10:01.575Z,99184.00
2022-09-28T05:12:28.012Z,99188.00
2022-09-28T05:14:54.476Z,99190.00
2022-09-28T05:17:20.869Z,99191.00
2022-09-28T05:19:47.317Z,99187.00
2022-09-28T05:22:14.820Z,99189.00
2022-09-28T05:24:41.674Z,99197.00
2022-09-28T05:27:08.118Z,99183.00
2022-09-28T05:29:34.569Z,99174.00
2022-09-28T05:32:01.638Z,99184.00
2022-09-28T05:34:28.320Z,99185.00
2022-09-28T05:36:54.743Z,99183.00
2022-09-28T05:39:21.208Z,99188.00
2022-09-28T05:41:48.667Z,99192.00
2022-09-28T05:44:15.199Z,99187.00
2022-09-28T05:46:41.803Z,99187.00
2022-09-28T05:49:08.244Z,99182.00
2022-09-28T05:51:34.645Z,99193.00
2022-09-28T05:54:05.697Z,99186.00
2022-09-28T05:56:32.876Z,99179.00
2022-09-28T05:58:59.273Z,99168.00
2022-09-28T06:01:25.844Z,99167.00
2022-09-28T06:03:52.369Z,99172.00
2022-09-28T06:06:18.982Z,99174.00
2022-09-28T06:08:46.300Z,99168.00
2022-09-28T06:11:12.921Z,99174.00
2022-09-28T06:13:42.614Z,99163.00
2022-09-28T06:16:14.062Z,99170.00
2022-09-28T06:18:41.444Z,99168.00
2022-09-28T06:21:10.744Z,99163.00
2022-09-28T06:23:37.160Z,99153.00
2022-09-28T06:26:03.604Z,99154.00
2022-09-28T06:28:30.464Z,99151.00
2022-09-28T06:30:59.590Z,99150.00
2022-09-28T06:33:26.714Z,99147.00
2022-09-28T06:35:53.132Z,99147.00
2022-09-28T06:38:19.647Z,99150.00
2022-09-28T06:40:46.297Z,99151.00
2022-09-28T06:43:15.320Z,99146.00
2022-09-28T06:45:42.954Z,99152.00
2022-09-28T06:48:10.386Z,99152.00
2022-09-28T06:50:40.033Z,99149.00
2022-09-28T06:53:09.422Z,99150.00
2022-09-28T06:55:39.142Z,99145.00
2022-09-28T06:58:09.613Z,99152.00
2022-09-28T07:00:37.608Z,99142.00
2022-09-28T07:03:06.454Z,99129.00
2022-09-28T07:05:36.863Z,99128.00
2022-09-28T07:08:04.794Z,99141.00
2022-09-28T07:10:32.036Z,99142.00
2022-09-28T07:13:02.623Z,99138.00
2022-09-28T07:15:29.581Z,99139.00
2022-09-28T07:18:05.853Z,99138.00
2022-09-28T07:20:46.686Z,99138.00
2022-09-28T07:23:19.605Z,99141.00
2022-09-28T07:25:47.811Z,99139.00
2022-09-28T07:28:14.494Z,99133.00
2022-09-28T07:30:41.093Z,99138.00
2022-09-28T07:33:09.379Z,99139.00
2022-09-28T07:35:35.858Z,99140.00
2022-09-28T07:38:04.706Z,99142.00
2022-09-28T07:40:51.019Z,99143.00
2022-09-28T07:43:20.622Z,99150.00
2022-09-28T07:45:48.750Z,99151.00
2022-09-28T07:48:16.230Z,99157.00
2022-09-28T07:50:47.137Z,99156.00
2022-09-28T07:53:13.567Z,99158.00
2022-09-28T07:55:39.985Z,99165.00
2022-09-28T07:58:06.428Z,99160.00
2022-09-28T08:00:34.242Z,99156.00
2022-09-28T08:03:04.300Z,99157.00
2022-09-28T08:05:31.941Z,99161.00
2022-09-28T08:07:59.719Z,99172.00
2022-09-28T08:10:26.723Z,99163.00
2022-09-28T08:12:59.272Z,99159.00
2022-09-28T08:15:29.511Z,99153.00
2022-09-28T08:17:58.000Z,99160.00
2022-09-28T08:20:50.736Z,99167.00
2022-09-28T08:23:18.408Z,99174.00
2022-09-28T08:25:52.476Z,99179.00
2022-09-28T08:28:18.892Z,99172.00
2022-09-28T08:30:46.742Z,99172.00
2022-09-28T08:33:14.176Z,99178.00
2022-09-28T08:35:41.791Z,99181.00
2022-09-28T08:38:08.785Z,99186.00
2022-09-28T08:40:47.794Z,99175.00
2022-09-28T08:43:45.982Z,99187.00
2022-09-28T08:46:14.852Z,99183.00
2022-09-28T08:49:20.504Z,99183.00
2022-09-28T08:52:02.618Z,99176.00
2022-09-28T08:54:37.480Z,99187.00
2022-09-28T08:57:11.230Z,99187.00
2022-09-28T08:59:46.885Z,99182.00
2022-09-28T09:02:25.475Z,99182.00
2022-09-28T09:04:52.588Z,99185.00
2022-09-28T09:07:41.493Z,99182.00
2022-09-28T09:10:33.817Z,99179.00
2022-09-28T09:13:27.953Z,99186.00
2022-09-28T09:16:03.229Z,99178.00
2022-09-28T09:18:50.556Z,99173.00
2022-09-28T09:21:41.144Z,99182.00
2022-09-28T09:24:19.006Z,99182.00
2022-09-28T09:26:45.745Z,99180.00
2022-09-28T09:29:50.156Z,99186.00
2022-09-28T09:32:29.049Z,99178.00
2022-09-28T09:35:07.635Z,99164.00
2022-09-28T09:38:01.998Z,99180.00
2022-09-28T09:40:41.832Z,99175.00
2022-09-28T09:43:32.811Z,99157.00
2022-09-28T09:46:18.080Z,99154.00
2022-09-28T09:48:56.344Z,99159.00
2022-09-28T09:51:36.520Z,99186.00
2022-09-28T09:54:12.084Z,99170.00
2022-09-28T09:57:02.038Z,99160.00
2022-09-28T09:59:33.652Z,99187.00
2022-09-28T10:02:26.060Z,99175.00
2022-09-28T10:04:58.305Z,99162.00
2022-09-28T10:07:32.166Z,99171.00
2022-09-28T10:09:59.988Z,99145.00
2022-09-28T10:12:26.399Z,99148.00
2022-09-28T10:14:55.388Z,99144.00
2022-09-28T10:17:27.174Z,99143.00
2022-09-28T10:19:55.934Z,99153.00
2022-09-28T10:22:25.740Z,99150.00
2022-09-28T10:24:56.306Z,99158.00
2022-09-28T10:27:30.538Z,99151.00
2022-09-28T10:30:03.820Z,99181.00
2022-09-28T10:32:43.721Z,99190.00
2022-09-28T10:35:14.916Z,99193.00
2022-09-28T10:38:00.100Z,99183.00
2022-09-28T10:40:47.535Z,99191.00
2022-09-28T10:43:29.205Z,99186.00
2022-09-28T10:46:07.509Z,99188.00
2022-09-28T10:48:48.507Z,99195.00
2022-09-28T10:51:15.996Z,99186.00
2022-09-28T10:53:42.492Z,99185.00
2022-09-28T10:56:20.660Z,99187.00
2022-09-28T10:58:47.265Z,99186.00
2022-09-28T11:01:20.257Z,99183.00
2022-09-28T11:04:01.906Z,99187.00
2022-09-28T11:06:31.484Z,99180.00
2022-09-28T11:09:02.022Z,99185.00
2022-09-28T11:11:29.571Z,99185.00
2022-09-28T11:14:01.100Z,99181.00
2022-09-28T11:16:36.157Z,99191.00
2022-09-28T11:19:22.565Z,99184.00
2022-09-28T11:21:48.995Z,99186.00
2022-09-28T11:24:18.941Z,99188.00
2022-09-28T11:26:47.967Z,99188.00
2022-09-28T11:29:36.953Z,99195.00
2022-09-28T11:32:05.941Z,99191.00
2022-09-28T11:34:58.645Z,99199.00
2022-09-28T11:37:47.564Z,99192.00
2022-09-28T11:40:55.994Z,99205.00
2022-09-28T11:44:02.960Z,99213.00
2022-09-28T11:46:49.241Z,99206.00
2022-09-28T11:49:24.810Z,99203.00
2022-09-28T11:51:54.511Z,99206.00
2022-09-28T11:54:28.918Z,99197.00
2022-09-28T11:56:59.014Z,99202.00
2022-09-28T11:59:40.064Z,99207.00
2022-09-28T12:02:20.664Z,99209.00
2022-09-28T12:04:58.165Z,99218.00
2022-09-28T12:07:32.619Z,99205.00
2022-09-28T12:10:21.034Z,99204.00
2022-09-28T12:12:56.670Z,99200.00
2022-09-28T12:15:29.430Z,99211.00
2022-09-28T12:18:07.738Z,99194.00
2022-09-28T12:20:39.127Z,99186.00
2022-09-28T12:23:12.926Z,99171.00
2022-09-28T12:25:54.932Z,99167.00
2022-09-28T12:28:21.293Z,99174.00
2022-09-28T12:30:49.131Z,99168.00
2022-09-28T12:33:15.762Z,99168.00
2022-09-28T12:36:06.892Z,99175.00
2022-09-28T12:39:14.620Z,99173.00
2022-09-28T12:41:52.523Z,99174.00
2022-09-28T12:44:41.722Z,99175.00
2022-09-28T12:47:34.274Z,99178.00
2022-09-28T12:53:41.419Z,99186.00
2022-09-28T12:57:00.219Z,99186.00
2022-09-28T12:59:35.283Z,99186.00
2022-09-28T13:02:36.923Z,99178.00
2022-09-28T13:05:28.331Z,99183.00
2022-09-28T13:08:09.576Z,99190.00
2022-09-28T13:11:11.379Z,99188.00
2022-09-28T13:13:59.686Z,99198.00
2022-09-28T13:16:49.756Z,99193.00
2022-09-28T13:19:27.158Z,99197.00
2022-09-28T13:22:04.574Z,99208.00
2022-09-28T13:24:35.857Z,99209.00
2022-09-28T13:27:19.312Z,99200.00
2022-09-28T13:29:49.768Z,99203.00
2022-09-28T13:32:18.336Z,99193.00
2022-09-28T13:34:48.642Z,99201.00
2022-09-28T13:37:16.778Z,99202.00
2022-09-28T13:39:46.123Z,99192.00
2022-09-28T13:42:47.600Z,99197.00
2022-09-28T13:45:41.126Z,99200.00
2022-09-28T13:48:14.544Z,99202.00
2022-09-28T13:51:04.920Z,99201.00
2022-09-28T13:53:43.406Z,99201.00
2022-09-28T13:56:43.481Z,99199.00
2022-09-28T13:59:20.564Z,99211.00
2022-09-28T14:01:57.559Z,99212.00
2022-09-28T14:04:57.813Z,99246.00
2022-09-28T14:08:05.460Z,99239.00
2022-09-28T14:10:51.800Z,99254.00
2022-09-28T14:14:00.703Z,99217.00
2022-09-28T14:16:32.638Z,99222.00
2022-09-28T14:19:24.189Z,99244.00
2022-09-28T14:22:36.979Z,99248.00
2022-09-28T14:25:17.370Z,99251.00
2022-09-28T14:28:12.666Z,99247.00
2022-09-28T14:30:41.832Z,99258.00
2022-09-28T14:33:26.477Z,99246.00
2022-09-28T14:36:04.079Z,99233.00
2022-09-28T14:38:55.264Z,99249.00
2022-09-28T14:41:37.794Z,99265.00
2022-09-28T14:44:08.090Z,99258.00
2022-09-28T14:46:37.288Z,99262.00
2022-09-28T14:49:28.770Z,99262.00
2022-09-28T14:52:03.249Z,99268.00
2022-09-28T14:54:39.856Z,99260.00
2022-09-28T14:57:16.025Z,99256.00
2022-09-28T14:59:44.025Z,99250.00
2022-09-28T15:02:10.351Z,99265.00
2022-09-28T15:04:43.216Z,99268.00
2022-09-28T15:07:21.418Z,99267.00
2022-09-28T15:09:52.402Z,99275.00
2022-09-28T15:12:30.857Z,99273.00
2022-09-28T15:15:02.392Z,99277.00
2022-09-28T15:17:37.025Z,99274.00
2022-09-28T15:20:24.747Z,99258.00
2022-09-28T15:22:58.537Z,99277.00
2022-09-28T15:25:30.136Z,99278.00
2022-09-28T15:28:08.001Z,99285.00
2022-09-28T15:30:36.311Z,99284.00
2022-09-28T15:33:24.715Z,99272.00
2022-09-28T15:36:05.979Z,99277.00
2022-09-28T15:38:33.950Z,99280.00
2022-09-28T15:41:04.697Z,99270.00
2022-09-28T15:43:33.669Z,99285.00
2022-09-28T15:46:20.495Z,99289.00
2022-09-28T15:48:48.109Z,99294.00
2022-09-28T15:51:14.580Z,99294.00
2022-09-28T15:54:09.297Z,99307.00
2022-09-28T15:56:54.917Z,99308.00
2022-09-28T15:59:38.259Z,99307.00
2022-09-28T16:02:24.790Z,99312.00
2022-09-28T16:04:55.657Z,99318.00
2022-09-28T16:07:30.056Z,99320.00
2022-09-28T16:10:11.729Z,99316.00
2022-09-28T16:12:38.097Z,99324.00
2022-09-28T16:15:18.191Z,99326.00
2022-09-28T16:17:50.352Z,99334.00
2022-09-28T16:20:29.444Z,99327.00
2022-09-28T16:22:59.456Z,99337.00
2022-09-28T16:25:26.808Z,99340.00
2022-09-28T16:27:55.227Z,99334.00
2022-09-28T16:30:25.031Z,99336.00
2022-09-28T16:33:08.671Z,99343.00
2022-09-28T16:35:35.180Z,99349.00
2022-09-28T16:38:10.415Z,99348.00
2022-09-28T16:40:46.278Z,99354.00
2022-09-28T16:43:30.957Z,99351.00
2022-09-28T16:46:00.732Z,99358.00
2022-09-28T16:48:29.512Z,99353.00
2022-09-28T16:50:57.047Z,99357.00
2022-09-28T16:53:41.906Z,99362.00
2022-09-28T16:56:08.580Z,99360.00
2022-09-28T16:58:36.023Z,99364.00
2022-09-28T17:01:02.470Z,99367.00
2022-09-28T17:03:29.256Z,99367.00
2022-09-28T17:05:56.783Z,99369.00
2022-09-28T17:08:24.781Z,99365.00
2022-09-28T17:13:41.601Z,99373.00
2022-09-28T17:16:20.997Z,99376.00
2022-09-28T17:18:51.838Z,99380.00
2022-09-28T17:21:20.568Z,99378.00
2022-09-28T17:23:49.093Z,99379.00
2022-09-28T17:26:27.174Z,99382.00
2022-09-28T17:28:53.751Z,99386.00
2022-09-28T17:31:20.439Z,99377.00
2022-09-28T17:33:46.920Z,99385.00
2022-09-28T17:36:15.620Z,99391.00
2022-09-28T17:38:43.114Z,99395.00
2022-09-28T17:41:20.066Z,99383.00
2022-09-28T17:43:47.361Z,99388.00
2022-09-28T17:46:30.807Z,99395.00
2022-09-28T17:48:59.552Z,99398.00
2022-09-28T17:51:28.041Z,99389.00
2022-09-28T17:53:56.103Z,99398.00
2022-09-28T17:56:25.614Z,99390.00
2022-09-28T17:58:58.538Z,99398.00
2022-09-28T18:01:24.987Z,99392.00
2022-09-28T18:03:51.434Z,99399.00
2022-09-28T18:06:22.985Z,99405.00
2022-09-28T18:08:49.458Z,99406.00
2022-09-28T18:11:17.346Z,99404.00
2022-09-28T18:13:45.917Z,99402.00
2022-09-28T18:16:13.656Z,99411.00
2022-09-28T18:18:40.544Z,99408.00
2022-09-28T18:21:07.766Z,99407.00
2022-09-28T18:23:38.525Z,99416.00
2022-09-28T18:26:10.943Z,99412.00
2022-09-28T18:28:37.366Z,99410.00
2022-09-28T18:31:13.268Z,99424.00
2022-09-28T18:33:52.834Z,99414.00
2022-09-28T18:36:19.290Z,99421.00
2022-09-28T18:38:45.753Z,99429.00
2022-09-28T18:41:16.031Z,99424.00
2022-09-28T18:43:48.689Z,99437.00
2022-09-28T18:46:15.330Z,99424.00
2022-09-28T18:48:42.588Z,99434.00
2022-09-28T18:51:10.432Z,99442.00
2022-09-28T18:53:37.904Z,99440.00
2022-09-28T18:56:10.262Z,99439.00
2022-09-28T18:58:38.110Z,99449.00
2022-09-28T19:01:28.827Z,99454.00
2022-09-28T19:03:56.411Z,99448.00
2022-09-28T19:06:23.220Z,99450.00
2022-09-28T19:08:54.292Z,99452.00
2022-09-28T19:11:21.131Z,99449.00
2022-09-28T19:13:47.710Z,99457.00
2022-09-28T19:16:20.891Z,99462.00
2022-09-28T19:18:48.228Z,99462.00
2022-09-28T19:21:15.582Z,99454.00
2022-09-28T19:23:49.050Z,99456.00
2022-09-28T19:26:18.803Z,99468.00
2022-09-28T19:28:45.428Z,99459.00
2022-09-28T19:31:13.576Z,99459.00
2022-09-28T19:33:40.755Z,99463.00
2022-09-28T19:36:13.032Z,99456.00
2022-09-28T19:38:40.315Z,99468.00
2022-09-28T19:41:39.412Z,99464.00
2022-09-28T19:44:15.652Z,99468.00
2022-09-28T19:46:43.216Z,99468.00
2022-09-28T19:49:12.834Z,99467.00
2022-09-28T19:51:51.415Z,99470.00
2022-09-28T19:54:33.093Z,99465.00
2022-09-28T19:57:07.382Z,99468.00
2022-09-28T19:59:34.590Z,99465.00
2022-09-28T20:02:02.127Z,99467.00
2022-09-28T20:04:29.195Z,99471.00
2022-09-28T20:06:55.785Z,99473.00
2022-09-28T20:09:22.529Z,99475.00
2022-09-28T20:11:51.314Z,99471.00
2022-09-28T20:14:18.642Z,99480.00
2022-09-28T20:16:48.668Z,99477.00
2022-09-28T20:19:15.426Z,99476.00
2022-09-28T20:21:41.900Z,99473.00
2022-09-28T20:24:11.489Z,99489.00
2022-09-28T20:26:37.973Z,99491.00
2022-09-28T20:29:05.547Z,99500.00
2022-09-28T20:31:32.257Z,99496.00
2022-09-28T20:33:58.910Z,99495.00
2022-09-28T20:36:26.897Z,99499.00
2022-09-28T20:38:54.565Z,99499.00
2022-09-28T20:41:23.013Z,99493.00
2022-09-28T20:43:54.524Z,99500.00
2022-09-28T20:46:22.031Z,99496.00
2022-09-28T20:48:50.208Z,99501.00
2022-09-28T20:51:19.287Z,99511.00
2022-09-28T20:53:51.324Z,99511.00
2022-09-28T20:56:21.179Z,99507.00
2022-09-28T20:58:50.238Z,99519.00
2022-09-28T21:01:19.495Z,99512.00
2022-09-28T21:03:55.783Z,99517.00
2022-09-28T21:06:24.818Z,99514.00
2022-09-28T21:08:51.813Z,99530.00
2022-09-28T21:11:20.675Z,99522.00
2022-09-28T21:13:47.558Z,99523.00
2022-09-28T21:16:16.234Z,99533.00
2022-09-28T21:18:42.793Z,99529.00
2022-09-28T21:21:12.558Z,99533.00
2022-09-28T21:23:39.587Z,99538.00
2022-09-28T21:26:24.647Z,99536.00
2022-09-28T21:29:02.044Z,99540.00
2022-09-28T21:31:37.689Z,99539.00
2022-09-28T21:34:04.733Z,99548.00
2022-09-28T21:36:31.967Z,99546.00
2022-09-28T21:38:58.384Z,99546.00
2022-09-28T21:41:25.326Z,99543.00
2022-09-28T21:43:52.553Z,99544.00
2022-09-28T21:46:19.040Z,99549.00
2022-09-28T21:48:45.531Z,99548.00
2022-09-28T21:51:15.647Z,99549.00
2022-09-28T21:53:42.760Z,99549.00
2022-09-28T21:56:10.879Z,99551.00
2022-09-28T21:58:37.966Z,99556.00
2022-09-28T22:01:08.949Z,99557.00
2022-09-28T22:03:36.624Z,99561.00
2022-09-28T22:06:03.755Z,99550.00
2022-09-28T22:08:30.387Z,99561.00
2022-09-28T22:11:18.986Z,99561.00
2022-09-28T22:13:48.180Z,99552.00
2022-09-28T22:16:16.301Z,99553.00
2022-09-28T22:18:43.217Z,99548.00
2022-09-28T22:21:18.758Z,99557.00
2022-09-28T22:23:45.410Z,99556.00
2022-09-28T22:26:14.540Z,99556.00
2022-09-28T22:28:46.123Z,99555.00
2022-09-28T22:31:12.873Z,99552.00
2022-09-28T22:33:39.373Z,99564.00
2022-09-28T22:36:06.610Z,99563.00
2022-09-28T22:38:33.346Z,99563.00
2022-09-28T22:41:00.527Z,99561.00
2022-09-28T22:43:27.106Z,99564.00
2022-09-28T22:46:03.956Z,99563.00
2022-09-28T22:48:31.192Z,99571.00
2022-09-28T22:50:57.858Z,99571.00
2022-09-28T22:53:24.814Z,99572.00
2022-09-28T22:55:51.933Z,99575.00
2022-09-28T22:58:18.392Z,99571.00
2022-09-28T23:00:44.811Z,99568.00
2022-09-28T23:03:11.359Z,99575.00
2022-09-28T23:05:37.826Z,99577.00
2022-09-28T23:08:04.603Z,99573.00
2022-09-28T23:10:31.903Z,99570.00
2022-09-28T23:12:58.366Z,99571.00
2022-09-28T23:15:25.402Z,99575.00
2022-09-28T23:17:52.904Z,99579.00
2022-09-28T23:20:23.615Z,99574.00
2022-09-28T23:22:50.488Z,99579.00
2022-09-28T23:25:18.751Z,99583.00
2022-09-28T23:27:47.005Z,99577.00
2022-09-28T23:30:15.936Z,99577.00
2022-09-28T23:32:42.651Z,99576.00
2022-09-28T23:35:09.971Z,99582.00
2022-09-28T23:37:37.561Z,99575.00
2022-09-28T23:40:05.485Z,99566.00
2022-09-28T23:42:31.985Z,99572.00
2022-09-28T23:44:58.389Z,99566.00
2022-09-28T23:47:24.988Z,99584.00
2022-09-28T23:49:51.564Z,99580.00
2022-09-28T23:52:18.211Z,99580.00
2022-09-28T23:54:44.631Z,99581.00
2022-09-28T23:57:11.077Z,99581.00
2022-09-28T23:59:37.525Z,99585.00
